createdAt,value
2019-04-21T00:01:37.660Z,28.70
2019-04-21T00:03:43.076Z,28.70
2019-04-21T00:05:58.813Z,28.60
2019-04-21T00:08:10.758Z,28.60
2019-04-21T00:10:08.980Z,28.60
2019-04-21T00:12:09.191Z,28.60
2019-04-21T00:14:03.623Z,28.60
2019-04-21T00:15:57.925Z,28.70
2019-04-21T00:18:00.689Z,28.60
2019-04-21T00:20:12.493Z,28.70
2019-04-21T00:22:17.803Z,28.60
2019-04-21T00:24:24.001Z,28.60
2019-04-21T00:26:31.447Z,28.60
2019-04-21T00:28:46.855Z,28.70
2019-04-21T00:30:43.075Z,28.60
2019-04-21T00:32:35.570Z,28.70
2019-04-21T00:34:25.754Z,28.60
2019-04-21T00:36:38.432Z,28.70
2019-04-21T00:38:59.208Z,28.60
2019-04-21T00:40:56.652Z,28.70
2019-04-21T00:42:57.143Z,28.70
2019-04-21T00:44:58.935Z,28.70
2019-04-21T00:46:58.153Z,28.60
2019-04-21T00:49:03.075Z,28.80
2019-04-21T00:51:36.089Z,28.70
2019-04-21T00:53:24.556Z,28.80
2019-04-21T00:55:34.054Z,28.70
2019-04-21T00:57:35.730Z,28.70
2019-04-21T00:59:34.962Z,28.80
2019-04-21T01:01:32.908Z,28.80
2019-04-21T01:03:38.000Z,28.70
2019-04-21T01:05:42.076Z,28.80
2019-04-21T01:07:41.981Z,28.80
2019-04-21T01:09:39.855Z,28.80
2019-04-21T01:11:52.045Z,28.80
2019-04-21T01:13:56.703Z,28.90
2019-04-21T01:15:53.071Z,28.90
2019-04-21T01:17:51.869Z,28.80
2019-04-21T01:19:51.370Z,28.90
2019-04-21T01:21:38.994Z,28.90
2019-04-21T01:23:42.378Z,28.90
2019-04-21T01:25:55.444Z,29.00
2019-04-21T01:28:01.248Z,28.90
2019-04-21T01:30:14.650Z,28.90
2019-04-21T01:32:19.047Z,29.00
2019-04-21T01:34:14.953Z,29.00
2019-04-21T01:36:14.657Z,29.10
2019-04-21T01:38:21.691Z,29.10
2019-04-21T01:40:28.927Z,29.10
2019-04-21T01:42:25.592Z,29.10
2019-04-21T01:44:40.404Z,29.10
2019-04-21T01:46:28.154Z,29.00
2019-04-21T01:48:31.899Z,29.10
2019-04-21T01:50:39.685Z,29.10
2019-04-21T01:52:43.857Z,29.20
2019-04-21T01:54:53.786Z,29.20
2019-04-21T01:57:03.305Z,29.20
2019-04-21T01:58:53.904Z,29.10
2019-04-21T02:01:00.798Z,29.10
2019-04-21T02:03:22.635Z,29.20
2019-04-21T02:05:17.018Z,29.20
2019-04-21T02:07:15.182Z,29.30
2019-04-21T02:09:15.401Z,29.30
2019-04-21T02:11:23.119Z,29.30
2019-04-21T02:13:23.258Z,29.40
2019-04-21T02:15:33.043Z,29.40
2019-04-21T02:17:29.498Z,29.40
2019-04-21T02:19:29.824Z,29.40
2019-04-21T02:21:29.924Z,29.40
2019-04-21T02:25:46.602Z,29.40
2019-04-21T02:27:43.735Z,29.40
2019-04-21T02:29:50.245Z,29.40
2019-04-21T02:32:01.629Z,29.50
2019-04-21T02:33:58.496Z,29.40
2019-04-21T02:38:08.889Z,29.40
2019-04-21T02:42:16.209Z,29.50
2019-04-21T02:44:15.935Z,29.40
2019-04-21T02:46:23.655Z,29.40
2019-04-21T02:48:26.150Z,29.40
2019-04-21T02:52:31.080Z,29.50
2019-04-21T02:58:53.119Z,29.40
2019-04-21T03:00:55.602Z,29.50
2019-04-21T03:03:05.609Z,29.50
2019-04-21T03:07:39.032Z,29.50
2019-04-21T03:09:45.936Z,29.60
2019-04-21T03:11:38.085Z,29.70
2019-04-21T03:13:47.308Z,29.70
2019-04-21T03:17:50.785Z,29.70
2019-04-21T03:21:57.608Z,29.80
2019-04-21T03:24:01.175Z,29.70
2019-04-21T03:26:00.824Z,29.80
2019-04-21T03:28:04.925Z,29.80
2019-04-21T03:30:13.278Z,29.80
2019-04-21T03:32:37.135Z,29.80
2019-04-21T03:38:19.144Z,30.00
2019-04-21T03:40:14.930Z,30.20
2019-04-21T03:42:25.627Z,30.20
2019-04-21T03:44:26.864Z,30.20
2019-04-21T03:48:27.450Z,30.40
2019-04-21T03:50:45.444Z,30.40
2019-04-21T03:54:37.136Z,30.50
2019-04-21T04:03:28.148Z,31.20
2019-04-21T04:05:15.044Z,30.60
2019-04-21T04:07:25.175Z,30.70
2019-04-21T04:09:37.531Z,30.90
2019-04-21T04:11:41.404Z,31.00
2019-04-21T04:13:53.766Z,31.10
2019-04-21T04:15:56.175Z,31.10
2019-04-21T04:17:41.030Z,31.20
2019-04-21T04:23:58.073Z,31.60
2019-04-21T04:25:49.355Z,31.70
2019-04-21T04:29:59.096Z,31.90
2019-04-21T04:31:55.330Z,32.00
2019-04-21T04:36:15.449Z,32.30
2019-04-21T04:38:13.117Z,32.50
2019-04-21T04:40:14.575Z,32.60
2019-04-21T04:42:40.774Z,32.60
2019-04-21T04:46:45.563Z,32.70
2019-04-21T04:48:35.209Z,32.80
2019-04-21T04:50:49.375Z,32.90
2019-04-21T04:52:36.255Z,33.00
2019-04-21T04:56:48.249Z,33.00
2019-04-21T04:59:18.309Z,33.10
2019-04-21T05:01:06.158Z,33.10
2019-04-21T05:05:07.077Z,33.20
2019-04-21T05:07:07.107Z,33.20
2019-04-21T05:11:20.716Z,33.20
2019-04-21T05:13:09.980Z,33.20
2019-04-21T05:15:07.881Z,33.30
2019-04-21T05:19:16.412Z,33.50
2019-04-21T05:21:24.440Z,33.60
2019-04-21T05:23:12.132Z,33.70
2019-04-21T05:25:09.616Z,33.70
2019-04-21T05:27:16.744Z,33.80
2019-04-21T05:29:37.489Z,33.70
2019-04-21T05:32:13.483Z,33.70
2019-04-21T05:34:03.059Z,33.70
2019-04-21T05:36:03.091Z,33.70
2019-04-21T05:38:06.295Z,33.90
2019-04-21T05:40:08.769Z,33.90
2019-04-21T05:42:02.591Z,34.10
2019-04-21T05:44:19.271Z,34.10
2019-04-21T05:46:18.471Z,34.10
2019-04-21T05:48:28.913Z,34.30
2019-04-21T05:50:23.311Z,34.30
2019-04-21T05:52:26.491Z,34.30
2019-04-21T05:56:36.494Z,34.20
2019-04-21T05:58:41.759Z,34.20
2019-04-21T06:01:03.523Z,34.30
2019-04-21T06:02:52.084Z,34.20
2019-04-21T06:05:14.489Z,34.20
2019-04-21T06:06:59.890Z,34.50
2019-04-21T06:08:53.261Z,34.70
2019-04-21T06:11:14.818Z,34.70
2019-04-21T06:13:10.046Z,34.70
2019-04-21T06:15:02.701Z,34.90
2019-04-21T06:17:11.588Z,34.80
2019-04-21T06:19:07.653Z,34.70
2019-04-21T06:21:13.050Z,34.70
2019-04-21T06:23:11.552Z,34.70
2019-04-21T06:27:26.308Z,34.50
2019-04-21T06:29:23.733Z,34.40
2019-04-21T06:33:44.791Z,34.40
2019-04-21T06:35:45.770Z,34.50
2019-04-21T06:39:48.363Z,34.40
2019-04-21T06:41:37.932Z,34.40
2019-04-21T06:43:48.532Z,34.40
2019-04-21T06:45:48.839Z,34.50
2019-04-21T06:47:50.149Z,34.50
2019-04-21T06:49:48.571Z,34.30
2019-04-21T06:51:53.364Z,34.30
2019-04-21T06:53:59.245Z,34.30
2019-04-21T06:56:03.351Z,34.40
2019-04-21T06:58:01.433Z,34.30
2019-04-21T06:59:59.984Z,34.30
2019-04-21T07:02:28.673Z,34.20
2019-04-21T07:06:29.504Z,34.20
2019-04-21T07:10:16.913Z,34.20
2019-04-21T07:12:18.532Z,34.10
2019-04-21T07:14:29.393Z,34.10
2019-04-21T07:16:25.209Z,34.10
2019-04-21T07:18:29.812Z,34.00
2019-04-21T07:20:28.369Z,33.90
2019-04-21T07:22:40.167Z,33.90
2019-04-21T07:24:41.978Z,33.90
2019-04-21T07:26:36.292Z,33.90
2019-04-21T07:28:40.348Z,33.90
2019-04-21T07:30:43.982Z,33.80
2019-04-21T07:32:49.707Z,33.80
2019-04-21T07:34:56.120Z,33.60
2019-04-21T07:38:52.198Z,33.60
2019-04-21T07:40:45.772Z,33.60
2019-04-21T07:42:56.135Z,33.60
2019-04-21T07:44:55.315Z,33.50
2019-04-21T07:46:58.447Z,33.50
2019-04-21T07:49:07.968Z,33.40
2019-04-21T07:51:26.478Z,33.40
2019-04-21T07:53:36.771Z,33.30
2019-04-21T07:57:36.257Z,33.20
2019-04-21T07:59:46.083Z,33.40
2019-04-21T08:01:48.484Z,33.40
2019-04-21T08:03:46.107Z,33.50
2019-04-21T08:05:53.752Z,33.60
2019-04-21T08:07:51.979Z,33.70
2019-04-21T08:09:51.027Z,33.60
2019-04-21T08:11:56.160Z,33.50
2019-04-21T08:13:57.279Z,33.50
2019-04-21T08:16:07.354Z,33.50
2019-04-21T08:18:07.718Z,33.50
2019-04-21T08:20:09.259Z,33.40
2019-04-21T08:22:11.464Z,33.40
2019-04-21T08:24:16.301Z,33.60
2019-04-21T08:26:22.953Z,33.60
2019-04-21T08:28:19.155Z,33.60
2019-04-21T08:30:27.032Z,33.60
2019-04-21T08:32:36.321Z,33.70
2019-04-21T08:34:30.590Z,33.90
2019-04-21T08:36:29.192Z,33.80
2019-04-21T08:38:38.845Z,33.80
2019-04-21T08:40:49.253Z,33.90
2019-04-21T08:42:38.274Z,33.80
2019-04-21T08:44:47.970Z,33.90
2019-04-21T08:46:48.747Z,33.80
2019-04-21T08:48:54.278Z,33.60
2019-04-21T08:50:52.575Z,33.50
2019-04-21T08:52:56.642Z,33.60
2019-04-21T08:55:00.304Z,33.50
2019-04-21T08:57:10.084Z,33.40
2019-04-21T08:59:28.927Z,33.40
2019-04-21T09:03:43.063Z,33.30
2019-04-21T09:05:45.500Z,33.30
2019-04-21T09:07:55.706Z,33.30
2019-04-21T09:09:52.815Z,33.30
2019-04-21T09:11:54.243Z,33.30
2019-04-21T09:13:57.243Z,33.30
2019-04-21T09:15:52.399Z,33.40
2019-04-21T09:17:53.403Z,33.10
2019-04-21T09:20:09.708Z,33.10
2019-04-21T09:22:09.553Z,33.00
2019-04-21T09:24:11.631Z,32.90
2019-04-21T09:26:14.034Z,32.90
2019-04-21T09:28:14.028Z,32.80
2019-04-21T09:30:02.671Z,32.90
2019-04-21T09:32:03.833Z,32.90
2019-04-21T09:34:08.144Z,32.90
2019-04-21T09:36:12.503Z,33.00
2019-04-21T09:38:22.668Z,32.90
2019-04-21T09:40:16.861Z,32.80
2019-04-21T09:42:21.199Z,32.60
2019-04-21T09:44:27.613Z,32.50
2019-04-21T09:46:25.459Z,32.40
2019-04-21T09:48:30.650Z,32.10
2019-04-21T09:50:29.600Z,31.90
2019-04-21T09:52:41.842Z,31.60
2019-04-21T09:54:48.162Z,31.50
2019-04-21T09:56:47.263Z,31.30
2019-04-21T09:58:49.472Z,31.00
2019-04-21T10:01:00.040Z,30.70
2019-04-21T10:02:56.728Z,30.20
2019-04-21T10:04:52.645Z,29.90
2019-04-21T10:06:54.514Z,29.80
2019-04-21T10:09:02.726Z,29.70
2019-04-21T10:10:59.345Z,29.50
2019-04-21T10:13:02.877Z,29.20
2019-04-21T10:15:04.436Z,28.80
2019-04-21T10:17:13.404Z,28.60
2019-04-21T10:19:15.951Z,28.60
2019-04-21T10:21:19.713Z,28.30
2019-04-21T10:23:21.256Z,28.10
2019-04-21T10:25:25.086Z,28.10
2019-04-21T10:27:27.462Z,28.00
2019-04-21T10:29:32.693Z,27.80
2019-04-21T10:31:32.590Z,27.80
2019-04-21T10:33:36.754Z,27.70
2019-04-21T10:35:39.387Z,27.70
2019-04-21T10:37:49.856Z,27.70
2019-04-21T10:39:43.855Z,27.70
2019-04-21T10:41:47.652Z,27.50
2019-04-21T10:43:49.741Z,27.30
2019-04-21T10:45:52.866Z,27.10
2019-04-21T10:47:55.068Z,26.90
2019-04-21T10:49:58.339Z,26.70
2019-04-21T10:52:01.335Z,26.50
2019-04-21T10:54:06.153Z,26.10
2019-04-21T10:56:17.543Z,26.10
2019-04-21T10:58:10.796Z,25.80
2019-04-21T11:00:14.043Z,25.60
2019-04-21T11:02:19.031Z,25.40
2019-04-21T11:04:29.858Z,25.10
2019-04-21T11:06:28.797Z,24.70
2019-04-21T11:08:35.446Z,24.70
2019-04-21T11:10:34.031Z,24.50
2019-04-21T11:12:39.108Z,24.40
2019-04-21T11:14:41.096Z,24.40
2019-04-21T11:16:43.332Z,24.40
2019-04-21T11:18:46.135Z,24.20
2019-04-21T11:20:48.918Z,24.20
2019-04-21T11:22:51.384Z,24.10
2019-04-21T11:24:53.811Z,24.00
2019-04-21T11:26:56.364Z,23.90
2019-04-21T11:28:59.059Z,23.90
2019-04-21T11:31:02.676Z,23.60
2019-04-21T11:33:04.599Z,23.60
2019-04-21T11:35:07.403Z,23.40
2019-04-21T11:37:10.551Z,24.10
2019-04-21T11:39:24.472Z,23.40
2019-04-21T11:41:16.391Z,23.50
2019-04-21T11:43:19.818Z,23.70
2019-04-21T11:45:28.334Z,23.60
2019-04-21T11:47:30.567Z,23.50
2019-04-21T11:49:34.825Z,23.00
2019-04-21T11:51:37.465Z,22.90
2019-04-21T11:53:41.094Z,22.90
2019-04-21T11:55:46.373Z,22.90
2019-04-21T11:57:48.639Z,22.80
2019-04-21T11:59:48.419Z,22.70
2019-04-21T12:01:51.804Z,22.80
2019-04-21T12:03:55.710Z,22.60
2019-04-21T12:05:57.731Z,22.60
2019-04-21T12:08:00.280Z,22.60
2019-04-21T12:10:03.783Z,22.60
2019-04-21T12:12:07.371Z,22.50
2019-04-21T12:14:09.994Z,22.60
2019-04-21T12:16:12.850Z,22.60
2019-04-21T12:18:15.549Z,22.60
2019-04-21T12:20:18.778Z,22.60
2019-04-21T12:22:23.587Z,22.80
2019-04-21T12:24:22.751Z,22.90
2019-04-21T12:26:26.381Z,22.80
2019-04-21T12:28:28.106Z,22.80
2019-04-21T12:30:31.484Z,22.60
2019-04-21T12:32:48.692Z,22.50
2019-04-21T12:34:52.202Z,22.40
2019-04-21T12:36:54.971Z,22.50
2019-04-21T12:39:00.055Z,22.60
2019-04-21T12:41:00.294Z,22.70
2019-04-21T12:43:02.875Z,22.60
2019-04-21T12:45:05.511Z,22.60
2019-04-21T12:47:07.961Z,22.60
2019-04-21T12:49:09.857Z,22.50
2019-04-21T12:51:12.310Z,22.30
2019-04-21T12:53:16.019Z,22.00
2019-04-21T12:55:18.099Z,22.00
2019-04-21T12:57:21.450Z,22.10
2019-04-21T12:59:24.579Z,21.60
2019-04-21T13:01:27.398Z,21.90
2019-04-21T13:03:30.365Z,22.10
2019-04-21T13:05:32.074Z,22.10
2019-04-21T13:07:35.430Z,21.80
2019-04-21T13:09:37.568Z,21.60
2019-04-21T13:11:41.253Z,21.60
2019-04-21T13:13:43.810Z,21.60
2019-04-21T13:15:45.353Z,22.00
2019-04-21T13:17:47.811Z,21.40
2019-04-21T13:19:51.408Z,21.30
2019-04-21T13:21:54.012Z,21.20
2019-04-21T13:23:56.887Z,21.10
2019-04-21T13:26:01.611Z,21.00
2019-04-21T13:28:02.844Z,20.90
2019-04-21T13:30:06.318Z,20.90
2019-04-21T13:32:08.905Z,21.00
2019-04-21T13:34:11.219Z,21.10
2019-04-21T13:36:14.027Z,21.10
2019-04-21T13:38:24.515Z,21.00
2019-04-21T13:40:39.779Z,20.90
2019-04-21T13:42:34.293Z,20.80
2019-04-21T13:44:28.793Z,20.80
2019-04-21T13:46:31.092Z,21.10
2019-04-21T13:48:34.766Z,20.60
2019-04-21T13:50:37.302Z,20.60
2019-04-21T13:52:40.763Z,20.50
2019-04-21T13:54:43.269Z,20.40
2019-04-21T13:56:46.779Z,20.40
2019-04-21T13:58:48.388Z,20.40
2019-04-21T14:00:51.065Z,20.40
2019-04-21T14:02:54.574Z,20.10
2019-04-21T14:04:56.114Z,19.70
2019-04-21T14:06:58.684Z,19.70
2019-04-21T14:09:01.362Z,19.90
2019-04-21T14:11:05.132Z,20.10
2019-04-21T14:13:06.903Z,20.10
2019-04-21T14:15:10.336Z,20.00
2019-04-21T14:17:12.854Z,19.90
2019-04-21T14:19:15.350Z,19.60
2019-04-21T14:21:18.835Z,19.40
2019-04-21T14:23:28.794Z,19.30
2019-04-21T14:25:23.940Z,19.30
2019-04-21T14:27:26.366Z,19.40
2019-04-21T14:29:28.935Z,19.30
2019-04-21T14:31:32.386Z,19.30
2019-04-21T14:33:34.227Z,19.00
2019-04-21T14:35:36.726Z,18.60
2019-04-21T14:37:40.442Z,18.40
2019-04-21T14:39:51.755Z,18.40
2019-04-21T14:41:44.379Z,18.50
2019-04-21T14:43:47.971Z,18.50
2019-04-21T14:46:04.375Z,18.60
2019-04-21T14:48:23.130Z,18.60
2019-04-21T14:50:46.415Z,18.60
2019-04-21T14:52:48.622Z,18.50
2019-04-21T14:54:51.667Z,18.40
2019-04-21T14:56:55.492Z,18.40
2019-04-21T14:58:59.125Z,18.70
2019-04-21T15:01:00.157Z,18.60
2019-04-21T15:03:03.713Z,18.70
2019-04-21T15:05:05.423Z,18.80
2019-04-21T15:07:07.967Z,18.90
2019-04-21T15:09:11.223Z,18.70
2019-04-21T15:11:15.997Z,18.70
2019-04-21T15:13:17.507Z,19.00
2019-04-21T15:15:20.828Z,18.50
2019-04-21T15:17:24.920Z,18.40
2019-04-21T15:19:26.692Z,18.50
2019-04-21T15:21:29.213Z,18.60
2019-04-21T15:23:33.802Z,18.50
2019-04-21T15:25:34.615Z,18.60
2019-04-21T15:27:37.165Z,18.40
2019-04-21T15:29:40.606Z,18.50
2019-04-21T15:31:44.821Z,18.40
2019-04-21T15:33:45.733Z,18.20
2019-04-21T15:35:49.173Z,18.30
2019-04-21T15:37:51.853Z,18.30
2019-04-21T15:39:54.269Z,18.40
2019-04-21T15:41:56.976Z,18.40
2019-04-21T15:44:02.448Z,18.40
2019-04-21T15:46:02.581Z,18.50
2019-04-21T15:48:05.652Z,18.70
2019-04-21T15:50:12.569Z,18.60
2019-04-21T15:52:11.649Z,18.70
2019-04-21T15:54:14.401Z,18.70
2019-04-21T15:56:28.985Z,18.70
2019-04-21T15:58:42.916Z,18.70
2019-04-21T16:00:49.636Z,18.70
2019-04-21T16:02:50.887Z,18.70
2019-04-21T16:04:54.763Z,18.50
2019-04-21T16:06:57.365Z,18.50
2019-04-21T16:09:00.855Z,18.70
2019-04-21T16:11:04.604Z,18.50
2019-04-21T16:13:05.896Z,18.20
2019-04-21T16:15:08.547Z,18.20
2019-04-21T16:17:11.690Z,18.20
2019-04-21T16:19:14.328Z,18.10
2019-04-21T16:21:17.942Z,18.10
2019-04-21T16:23:20.178Z,18.20
2019-04-21T16:25:23.074Z,18.40
2019-04-21T16:27:25.583Z,18.50
2019-04-21T16:29:27.150Z,18.40
2019-04-21T16:31:30.149Z,18.30
2019-04-21T16:33:33.348Z,18.30
2019-04-21T16:35:35.705Z,18.10
2019-04-21T16:37:37.456Z,18.30
2019-04-21T16:39:41.182Z,18.40
2019-04-21T16:41:42.608Z,18.50
2019-04-21T16:43:45.199Z,18.50
2019-04-21T16:45:48.788Z,18.60
2019-04-21T16:47:53.573Z,18.80
2019-04-21T16:49:53.934Z,18.90
2019-04-21T16:52:02.490Z,18.70
2019-04-21T16:54:06.025Z,18.60
2019-04-21T16:56:11.261Z,18.70
2019-04-21T16:58:23.186Z,18.70
2019-04-21T17:00:31.245Z,18.70
2019-04-21T17:02:24.841Z,18.70
2019-04-21T17:04:28.603Z,18.70
2019-04-21T17:06:31.171Z,18.90
2019-04-21T17:08:33.792Z,19.20
2019-04-21T17:10:36.461Z,19.30
2019-04-21T17:12:39.493Z,19.30
2019-04-21T17:14:57.049Z,19.30
2019-04-21T17:17:08.684Z,19.40
2019-04-21T17:18:57.384Z,19.50
2019-04-21T17:20:54.478Z,19.50
2019-04-21T17:22:53.622Z,19.30
2019-04-21T17:24:56.333Z,19.30
2019-04-21T17:26:59.600Z,19.30
2019-04-21T17:29:02.659Z,19.50
2019-04-21T17:31:04.843Z,19.70
2019-04-21T17:33:10.083Z,19.70
2019-04-21T17:35:10.195Z,19.80
2019-04-21T17:37:13.082Z,19.70
2019-04-21T17:39:16.424Z,19.90
2019-04-21T17:41:27.912Z,19.90
2019-04-21T17:43:21.784Z,19.90
2019-04-21T17:45:24.430Z,20.10
2019-04-21T17:47:36.460Z,20.10
2019-04-21T17:49:30.817Z,20.30
2019-04-21T17:51:46.680Z,20.30
2019-04-21T17:53:49.458Z,20.20
2019-04-21T17:55:59.827Z,20.70
2019-04-21T17:58:09.634Z,20.70
2019-04-21T18:00:16.559Z,20.60
2019-04-21T18:02:21.390Z,20.60
2019-04-21T18:04:20.589Z,20.70
2019-04-21T18:06:14.367Z,20.70
2019-04-21T18:08:27.825Z,20.60
2019-04-21T18:10:22.278Z,20.80
2019-04-21T18:12:24.974Z,21.10
2019-04-21T18:14:11.967Z,21.10
2019-04-21T18:16:26.739Z,21.50
2019-04-21T18:18:18.719Z,21.40
2019-04-21T18:20:21.884Z,21.60
2019-04-21T18:22:36.007Z,21.70
2019-04-21T18:24:42.811Z,21.70
2019-04-21T18:26:43.502Z,21.60
2019-04-21T18:28:39.047Z,21.40
2019-04-21T18:30:44.691Z,21.30
2019-04-21T18:32:48.189Z,21.30
2019-04-21T18:35:00.402Z,21.50
2019-04-21T18:37:00.857Z,21.60
2019-04-21T18:39:27.550Z,21.70
2019-04-21T18:41:15.373Z,21.80
2019-04-21T18:43:51.991Z,21.80
2019-04-21T18:46:11.554Z,22.20
2019-04-21T18:47:57.072Z,22.20
2019-04-21T18:49:44.231Z,22.40
2019-04-21T18:52:08.802Z,22.50
2019-04-21T18:54:27.305Z,22.90
2019-04-21T18:56:09.703Z,22.90
2019-04-21T18:58:11.959Z,23.20
2019-04-21T19:00:18.185Z,23.40
2019-04-21T19:02:19.106Z,23.50
2019-04-21T19:04:21.552Z,23.70
2019-04-21T19:06:32.174Z,23.80
2019-04-21T19:08:38.913Z,23.90
2019-04-21T19:10:47.965Z,24.10
2019-04-21T19:13:16.218Z,24.10
2019-04-21T19:14:46.040Z,24.20
2019-04-21T19:17:10.968Z,24.30
2019-04-21T19:19:10.070Z,24.40
2019-04-21T19:20:56.967Z,24.40
2019-04-21T19:22:58.990Z,24.30
2019-04-21T19:25:04.779Z,24.40
2019-04-21T19:27:12.035Z,24.40
2019-04-21T19:29:22.760Z,24.50
2019-04-21T19:31:20.916Z,24.60
2019-04-21T19:33:16.044Z,24.70
2019-04-21T19:35:02.392Z,24.80
2019-04-21T19:37:10.826Z,24.90
2019-04-21T19:39:12.847Z,24.90
2019-04-21T19:41:25.701Z,25.00
2019-04-21T19:43:31.846Z,25.10
2019-04-21T19:45:27.848Z,25.20
2019-04-21T19:47:41.837Z,25.40
2019-04-21T19:49:43.569Z,25.50
2019-04-21T19:51:33.927Z,25.60
2019-04-21T19:53:42.583Z,25.60
2019-04-21T19:55:27.807Z,25.50
2019-04-21T19:57:31.312Z,25.50
2019-04-21T19:59:41.762Z,25.40
2019-04-21T20:01:37.226Z,25.30
2019-04-21T20:03:38.802Z,25.30
2019-04-21T20:05:47.413Z,25.30
2019-04-21T20:08:05.417Z,25.30
2019-04-21T20:10:06.818Z,25.30
2019-04-21T20:12:03.612Z,25.40
2019-04-21T20:14:37.691Z,25.40
2019-04-21T20:16:13.654Z,25.40
2019-04-21T20:18:08.916Z,25.40
2019-04-21T20:20:03.707Z,25.50
2019-04-21T20:22:05.287Z,25.50
2019-04-21T20:24:11.267Z,25.50
2019-04-21T20:26:11.503Z,25.50
2019-04-21T20:28:27.208Z,25.50
2019-04-21T20:30:31.085Z,25.60
2019-04-21T20:32:39.740Z,25.60
2019-04-21T20:34:38.704Z,26.10
2019-04-21T20:36:43.047Z,25.60
2019-04-21T20:38:35.940Z,25.60
2019-04-21T20:40:41.294Z,25.50
2019-04-21T20:42:42.782Z,25.60
2019-04-21T20:45:13.339Z,25.60
2019-04-21T20:46:55.455Z,25.60
2019-04-21T20:48:51.254Z,25.60
2019-04-21T20:51:06.648Z,25.70
2019-04-21T20:53:06.073Z,25.60
2019-04-21T20:55:02.170Z,25.60
2019-04-21T20:57:11.239Z,25.60
2019-04-21T20:59:13.882Z,25.70
2019-04-21T21:01:32.987Z,25.70
2019-04-21T21:03:21.295Z,25.70
2019-04-21T21:05:19.054Z,25.70
2019-04-21T21:07:36.706Z,25.70
2019-04-21T21:09:27.148Z,25.70
2019-04-21T21:11:29.511Z,25.90
2019-04-21T21:13:36.679Z,25.70
2019-04-21T21:15:43.938Z,25.70
2019-04-21T21:17:46.800Z,25.70
2019-04-21T21:19:48.704Z,25.70
2019-04-21T21:21:40.187Z,25.70
2019-04-21T21:23:49.229Z,25.70
2019-04-21T21:25:50.735Z,25.70
2019-04-21T21:27:48.253Z,25.80
2019-04-21T21:29:57.291Z,25.60
2019-04-21T21:32:06.629Z,25.60
2019-04-21T21:34:23.750Z,25.70
2019-04-21T21:36:04.547Z,25.60
2019-04-21T21:38:07.737Z,25.60
2019-04-21T21:40:11.508Z,25.60
2019-04-21T21:42:00.950Z,25.50
2019-04-21T21:44:05.322Z,25.50
2019-04-21T21:46:04.821Z,25.50
2019-04-21T21:48:18.768Z,25.50
2019-04-21T21:50:16.160Z,25.50
2019-04-21T21:52:16.936Z,25.40
2019-04-21T21:54:11.731Z,25.50
2019-04-21T21:56:14.360Z,25.40
2019-04-21T21:58:24.280Z,25.40
2019-04-21T22:00:19.249Z,25.40
2019-04-21T22:02:31.972Z,25.50
2019-04-21T22:04:26.847Z,25.50
2019-04-21T22:06:40.123Z,25.50
2019-04-21T22:08:30.254Z,25.50
2019-04-21T22:10:32.995Z,25.50
2019-04-21T22:12:45.503Z,25.40
2019-04-21T22:14:43.561Z,25.40
2019-04-21T22:16:49.465Z,25.50
2019-04-21T22:19:04.589Z,25.50
2019-04-21T22:21:02.267Z,25.40
2019-04-21T22:22:56.575Z,25.40
2019-04-21T22:25:04.060Z,25.40
2019-04-21T22:26:55.183Z,25.40
2019-04-21T22:28:58.286Z,25.40
2019-04-21T22:31:01.147Z,25.40
2019-04-21T22:33:08.909Z,25.40
2019-04-21T22:35:11.527Z,25.40
2019-04-21T22:37:28.934Z,25.40
2019-04-21T22:39:34.930Z,25.00
2019-04-21T22:41:28.208Z,25.50
2019-04-21T22:43:28.477Z,25.40
2019-04-21T22:45:23.170Z,25.40
2019-04-21T22:47:32.154Z,25.40
2019-04-21T22:49:28.632Z,25.40
2019-04-21T22:51:37.520Z,25.40
2019-04-21T22:53:41.430Z,25.40
2019-04-21T22:55:37.313Z,25.40
2019-04-21T22:57:46.006Z,25.40
2019-04-21T22:59:45.401Z,25.40
2019-04-21T23:01:48.790Z,25.40
2019-04-21T23:03:53.646Z,25.40
2019-04-21T23:05:53.424Z,25.30
2019-04-21T23:07:58.605Z,25.30
2019-04-21T23:09:56.202Z,25.40
2019-04-21T23:12:01.021Z,25.30
2019-04-21T23:14:05.108Z,25.30
2019-04-21T23:16:05.852Z,25.30
2019-04-21T23:18:23.317Z,25.30
2019-04-21T23:20:37.325Z,25.30
2019-04-21T23:22:31.264Z,25.30
2019-04-21T23:24:43.781Z,25.30
2019-04-21T23:26:37.685Z,25.30
2019-04-21T23:28:45.724Z,25.30
2019-04-21T23:30:47.472Z,25.30
2019-04-21T23:32:35.979Z,25.20
2019-04-21T23:34:36.181Z,25.20
2019-04-21T23:36:35.252Z,25.20
2019-04-21T23:38:43.569Z,25.20
2019-04-21T23:40:39.801Z,25.20
2019-04-21T23:42:44.932Z,25.20
2019-04-21T23:44:49.103Z,25.20
2019-04-21T23:46:47.629Z,25.20
2019-04-21T23:49:07.449Z,25.20
2019-04-21T23:51:07.055Z,25.20
2019-04-21T23:52:55.432Z,25.20
2019-04-21T23:54:57.235Z,25.20
2019-04-21T23:57:02.824Z,25.20
2019-04-21T23:59:04.137Z,25.20
